sensor_id;sensor_type;location;lat;lon;timestamp;temperature;humidity
26336;DHT22;14047;50.936;4.654;2023-02-28T00:00:48;0.40;99.90
26336;DHT22;14047;50.936;4.654;2023-02-28T00:03:14;0.30;99.90
26336;DHT22;14047;50.936;4.654;2023-02-28T00:05:40;0.40;99.90
26336;DHT22;14047;50.936;4.654;2023-02-28T00:08:07;0.50;99.90
26336;DHT22;14047;50.936;4.654;2023-02-28T00:10:34;0.50;99.90
26336;DHT22;14047;50.936;4.654;2023-02-28T00:13:03;0.50;99.90
26336;DHT22;14047;50.936;4.654;2023-02-28T00:15:30;0.40;99.90
26336;DHT22;14047;50.936;4.654;2023-02-28T00:17:56;0.30;99.90
26336;DHT22;14047;50.936;4.654;2023-02-28T00:20:22;0.30;99.90
26336;DHT22;14047;50.936;4.654;2023-02-28T00:22:50;0.30;99.90
26336;DHT22;14047;50.936;4.654;2023-02-28T00:25:19;0.20;99.90
26336;DHT22;14047;50.936;4.654;2023-02-28T00:27:46;0.20;99.90
26336;DHT22;14047;50.936;4.654;2023-02-28T00:30:14;0.20;99.90
26336;DHT22;14047;50.936;4.654;2023-02-28T00:32:41;0.20;99.90
26336;DHT22;14047;50.936;4.654;2023-02-28T00:35:08;0.30;99.90
26336;DHT22;14047;50.936;4.654;2023-02-28T00:37:34;0.40;99.90
26336;DHT22;14047;50.936;4.654;2023-02-28T00:40:00;0.30;99.90
26336;DHT22;14047;50.936;4.654;2023-02-28T00:42:26;0.40;99.90
26336;DHT22;14047;50.936;4.654;2023-02-28T00:44:52;0.30;99.90
26336;DHT22;14047;50.936;4.654;2023-02-28T00:47:19;0.40;99.90
26336;DHT22;14047;50.936;4.654;2023-02-28T00:49:46;0.40;99.90
26336;DHT22;14047;50.936;4.654;2023-02-28T00:52:12;0.50;99.90
26336;DHT22;14047;50.936;4.654;2023-02-28T00:54:38;0.70;99.90
26336;DHT22;14047;50.936;4.654;2023-02-28T00:57:04;0.80;99.90
26336;DHT22;14047;50.936;4.654;2023-02-28T00:59:31;0.90;99.90
26336;DHT22;14047;50.936;4.654;2023-02-28T01:01:57;1.00;99.90
26336;DHT22;14047;50.936;4.654;2023-02-28T01:04:23;1.00;99.90
26336;DHT22;14047;50.936;4.654;2023-02-28T01:06:49;1.00;99.90
26336;DHT22;14047;50.936;4.654;2023-02-28T01:09:15;0.80;99.90
26336;DHT22;14047;50.936;4.654;2023-02-28T01:11:42;0.80;99.90
26336;DHT22;14047;50.936;4.654;2023-02-28T01:14:14;0.50;99.90
26336;DHT22;14047;50.936;4.654;2023-02-28T01:16:41;0.30;99.90
26336;DHT22;14047;50.936;4.654;2023-02-28T01:19:07;0.20;99.90
26336;DHT22;14047;50.936;4.654;2023-02-28T01:21:33;-0.10;99.90
26336;DHT22;14047;50.936;4.654;2023-02-28T01:24:01;-0.20;99.90
26336;DHT22;14047;50.936;4.654;2023-02-28T01:26:27;-0.30;99.90
26336;DHT22;14047;50.936;4.654;2023-02-28T01:28:53;-0.30;99.90
26336;DHT22;14047;50.936;4.654;2023-02-28T01:31:20;-0.30;99.90
26336;DHT22;14047;50.936;4.654;2023-02-28T01:33:48;-0.30;99.90
26336;DHT22;14047;50.936;4.654;2023-02-28T01:36:18;-0.30;99.90
26336;DHT22;14047;50.936;4.654;2023-02-28T01:38:45;-0.20;99.90
26336;DHT22;14047;50.936;4.654;2023-02-28T01:41:21;-0.30;99.90
26336;DHT22;14047;50.936;4.654;2023-02-28T01:46:14;-0.30;99.90
26336;DHT22;14047;50.936;4.654;2023-02-28T01:48:46;-0.20;99.90
26336;DHT22;14047;50.936;4.654;2023-02-28T01:51:24;-0.30;99.90
26336;DHT22;14047;50.936;4.654;2023-02-28T01:53:56;-0.30;99.90
26336;DHT22;14047;50.936;4.654;2023-02-28T01:56:28;-0.30;99.90
26336;DHT22;14047;50.936;4.654;2023-02-28T01:58:55;-0.50;99.90
26336;DHT22;14047;50.936;4.654;2023-02-28T02:01:23;-0.40;99.90
26336;DHT22;14047;50.936;4.654;2023-02-28T02:03:57;-0.30;99.90
26336;DHT22;14047;50.936;4.654;2023-02-28T02:06:28;-0.30;99.90
26336;DHT22;14047;50.936;4.654;2023-02-28T02:08:55;-0.30;99.90
26336;DHT22;14047;50.936;4.654;2023-02-28T02:11:23;-0.30;99.90
26336;DHT22;14047;50.936;4.654;2023-02-28T02:30:33;0.00;99.90
26336;DHT22;14047;50.936;4.654;2023-02-28T02:36:13;0.00;99.90
26336;DHT22;14047;50.936;4.654;2023-02-28T02:44:13;0.00;99.90
26336;DHT22;14047;50.936;4.654;2023-02-28T02:46:45;-0.10;99.90
26336;DHT22;14047;50.936;4.654;2023-02-28T02:49:18;-0.10;99.90
26336;DHT22;14047;50.936;4.654;2023-02-28T02:51:47;-0.10;99.90
26336;DHT22;14047;50.936;4.654;2023-02-28T02:54:15;-0.30;99.90
26336;DHT22;14047;50.936;4.654;2023-02-28T02:56:45;-0.40;99.90
26336;DHT22;14047;50.936;4.654;2023-02-28T02:59:14;-0.50;99.90
26336;DHT22;14047;50.936;4.654;2023-02-28T03:01:53;-0.60;99.90
26336;DHT22;14047;50.936;4.654;2023-02-28T03:04:23;-0.50;99.90
26336;DHT22;14047;50.936;4.654;2023-02-28T03:06:51;-0.40;99.90
26336;DHT22;14047;50.936;4.654;2023-02-28T03:09:25;-0.40;99.90
26336;DHT22;14047;50.936;4.654;2023-02-28T03:11:54;-0.40;99.90
26336;DHT22;14047;50.936;4.654;2023-02-28T03:28:08;-0.40;99.90
26336;DHT22;14047;50.936;4.654;2023-02-28T03:30:49;-0.50;99.90
26336;DHT22;14047;50.936;4.654;2023-02-28T03:36:15;-0.60;99.90
26336;DHT22;14047;50.936;4.654;2023-02-28T03:41:19;-0.70;99.90
26336;DHT22;14047;50.936;4.654;2023-02-28T03:43:54;-0.70;99.90
26336;DHT22;14047;50.936;4.654;2023-02-28T03:46:23;-0.70;99.90
26336;DHT22;14047;50.936;4.654;2023-02-28T03:49:17;-0.70;99.90
26336;DHT22;14047;50.936;4.654;2023-02-28T03:51:45;-0.80;99.90
26336;DHT22;14047;50.936;4.654;2023-02-28T03:54:19;-0.80;99.90
26336;DHT22;14047;50.936;4.654;2023-02-28T03:59:40;-0.90;99.90
26336;DHT22;14047;50.936;4.654;2023-02-28T04:02:07;-0.90;99.90
26336;DHT22;14047;50.936;4.654;2023-02-28T04:04:34;-0.90;99.90
26336;DHT22;14047;50.936;4.654;2023-02-28T04:07:08;-0.90;99.90
26336;DHT22;14047;50.936;4.654;2023-02-28T04:09:34;-1.00;99.90
26336;DHT22;14047;50.936;4.654;2023-02-28T04:12:00;-0.90;99.90
26336;DHT22;14047;50.936;4.654;2023-02-28T04:14:26;-0.90;99.90
26336;DHT22;14047;50.936;4.654;2023-02-28T04:16:52;-1.00;99.90
26336;DHT22;14047;50.936;4.654;2023-02-28T04:19:19;-0.90;99.90
26336;DHT22;14047;50.936;4.654;2023-02-28T04:21:47;-1.00;99.90
26336;DHT22;14047;50.936;4.654;2023-02-28T04:24:20;-1.00;99.90
26336;DHT22;14047;50.936;4.654;2023-02-28T04:26:49;-1.00;99.90
26336;DHT22;14047;50.936;4.654;2023-02-28T04:29:24;-0.80;99.90
26336;DHT22;14047;50.936;4.654;2023-02-28T04:31:51;-0.50;99.90
26336;DHT22;14047;50.936;4.654;2023-02-28T04:34:19;-0.70;99.90
26336;DHT22;14047;50.936;4.654;2023-02-28T04:36:47;-0.50;99.90
26336;DHT22;14047;50.936;4.654;2023-02-28T04:39:19;-0.50;99.90
26336;DHT22;14047;50.936;4.654;2023-02-28T04:41:45;-0.60;99.90
26336;DHT22;14047;50.936;4.654;2023-02-28T04:44:12;-0.70;99.90
26336;DHT22;14047;50.936;4.654;2023-02-28T04:46:38;-0.90;99.90
26336;DHT22;14047;50.936;4.654;2023-02-28T04:49:03;-1.10;99.90
26336;DHT22;14047;50.936;4.654;2023-02-28T04:51:30;-1.00;99.90
26336;DHT22;14047;50.936;4.654;2023-02-28T04:53:56;-1.10;99.90
26336;DHT22;14047;50.936;4.654;2023-02-28T04:56:23;-0.90;99.90
26336;DHT22;14047;50.936;4.654;2023-02-28T04:58:49;-0.80;99.90
26336;DHT22;14047;50.936;4.654;2023-02-28T05:01:29;-0.60;99.90
26336;DHT22;14047;50.936;4.654;2023-02-28T05:03:57;-0.30;99.90
26336;DHT22;14047;50.936;4.654;2023-02-28T05:06:25;-0.30;99.90
26336;DHT22;14047;50.936;4.654;2023-02-28T05:08:52;-0.60;99.90
26336;DHT22;14047;50.936;4.654;2023-02-28T05:11:25;-0.50;99.90
26336;DHT22;14047;50.936;4.654;2023-02-28T05:13:52;-0.50;99.90
26336;DHT22;14047;50.936;4.654;2023-02-28T05:16:19;-0.30;99.90
26336;DHT22;14047;50.936;4.654;2023-02-28T05:18:46;-0.10;99.90
26336;DHT22;14047;50.936;4.654;2023-02-28T05:21:31;-0.20;99.90
26336;DHT22;14047;50.936;4.654;2023-02-28T05:24:00;-0.10;99.90
26336;DHT22;14047;50.936;4.654;2023-02-28T05:26:27;0.10;99.90
26336;DHT22;14047;50.936;4.654;2023-02-28T05:28:53;0.00;99.90
26336;DHT22;14047;50.936;4.654;2023-02-28T05:31:21;0.00;99.90
26336;DHT22;14047;50.936;4.654;2023-02-28T05:33:47;0.00;99.90
26336;DHT22;14047;50.936;4.654;2023-02-28T05:36:13;-0.10;99.90
26336;DHT22;14047;50.936;4.654;2023-02-28T05:38:39;0.10;99.90
26336;DHT22;14047;50.936;4.654;2023-02-28T05:41:09;0.20;99.90
26336;DHT22;14047;50.936;4.654;2023-02-28T05:43:36;0.30;99.90
26336;DHT22;14047;50.936;4.654;2023-02-28T05:46:04;0.50;99.90
26336;DHT22;14047;50.936;4.654;2023-02-28T05:48:32;0.70;99.90
26336;DHT22;14047;50.936;4.654;2023-02-28T05:50:58;0.80;99.90
26336;DHT22;14047;50.936;4.654;2023-02-28T05:53:24;0.70;99.90
26336;DHT22;14047;50.936;4.654;2023-02-28T05:55:50;0.40;99.90
26336;DHT22;14047;50.936;4.654;2023-02-28T05:58:16;0.40;99.90
26336;DHT22;14047;50.936;4.654;2023-02-28T06:00:41;0.20;99.90
26336;DHT22;14047;50.936;4.654;2023-02-28T06:03:07;0.40;99.90
26336;DHT22;14047;50.936;4.654;2023-02-28T06:05:33;0.50;99.90
26336;DHT22;14047;50.936;4.654;2023-02-28T06:07:59;0.40;99.90
26336;DHT22;14047;50.936;4.654;2023-02-28T06:10:25;0.40;99.90
26336;DHT22;14047;50.936;4.654;2023-02-28T06:12:51;0.40;99.90
26336;DHT22;14047;50.936;4.654;2023-02-28T06:15:17;0.20;99.90
26336;DHT22;14047;50.936;4.654;2023-02-28T06:17:44;0.10;99.90
26336;DHT22;14047;50.936;4.654;2023-02-28T06:20:11;-0.20;99.90
26336;DHT22;14047;50.936;4.654;2023-02-28T06:22:38;-0.10;99.90
26336;DHT22;14047;50.936;4.654;2023-02-28T06:25:06;-0.10;99.90
26336;DHT22;14047;50.936;4.654;2023-02-28T06:27:33;0.00;99.90
26336;DHT22;14047;50.936;4.654;2023-02-28T06:29:59;0.00;99.90
26336;DHT22;14047;50.936;4.654;2023-02-28T06:32:25;0.00;99.90
26336;DHT22;14047;50.936;4.654;2023-02-28T06:34:51;-0.10;99.90
26336;DHT22;14047;50.936;4.654;2023-02-28T06:37:17;-0.20;99.90
26336;DHT22;14047;50.936;4.654;2023-02-28T06:39:43;-0.10;99.90
26336;DHT22;14047;50.936;4.654;2023-02-28T06:42:09;0.00;99.90
26336;DHT22;14047;50.936;4.654;2023-02-28T06:44:35;0.20;99.90
26336;DHT22;14047;50.936;4.654;2023-02-28T06:47:03;0.30;99.90
26336;DHT22;14047;50.936;4.654;2023-02-28T06:49:32;0.30;99.90
26336;DHT22;14047;50.936;4.654;2023-02-28T06:51:59;0.30;99.90
26336;DHT22;14047;50.936;4.654;2023-02-28T06:54:25;0.50;99.90
26336;DHT22;14047;50.936;4.654;2023-02-28T06:56:51;0.50;99.90
26336;DHT22;14047;50.936;4.654;2023-02-28T06:59:17;0.60;99.90
26336;DHT22;14047;50.936;4.654;2023-02-28T07:01:43;0.70;99.90
26336;DHT22;14047;50.936;4.654;2023-02-28T07:04:09;0.70;99.90
26336;DHT22;14047;50.936;4.654;2023-02-28T07:06:35;0.70;99.90
26336;DHT22;14047;50.936;4.654;2023-02-28T07:09:01;0.60;99.90
26336;DHT22;14047;50.936;4.654;2023-02-28T07:11:28;0.50;99.90
26336;DHT22;14047;50.936;4.654;2023-02-28T07:13:55;0.40;99.90
26336;DHT22;14047;50.936;4.654;2023-02-28T07:16:22;0.30;99.90
26336;DHT22;14047;50.936;4.654;2023-02-28T07:18:48;0.30;99.90
26336;DHT22;14047;50.936;4.654;2023-02-28T07:21:15;0.30;99.90
26336;DHT22;14047;50.936;4.654;2023-02-28T07:23:41;0.40;99.90
26336;DHT22;14047;50.936;4.654;2023-02-28T07:26:12;0.50;99.90
26336;DHT22;14047;50.936;4.654;2023-02-28T07:28:41;0.40;99.90
26336;DHT22;14047;50.936;4.654;2023-02-28T07:31:08;0.40;99.90
26336;DHT22;14047;50.936;4.654;2023-02-28T07:38:36;0.60;99.90
26336;DHT22;14047;50.936;4.654;2023-02-28T07:41:03;0.60;99.90
26336;DHT22;14047;50.936;4.654;2023-02-28T07:43:34;0.70;99.90
26336;DHT22;14047;50.936;4.654;2023-02-28T07:46:11;0.70;99.90
26336;DHT22;14047;50.936;4.654;2023-02-28T07:48:38;0.70;99.90
26336;DHT22;14047;50.936;4.654;2023-02-28T07:51:04;0.70;99.90
26336;DHT22;14047;50.936;4.654;2023-02-28T07:53:30;0.80;99.90
26336;DHT22;14047;50.936;4.654;2023-02-28T07:55:57;0.90;99.90
26336;DHT22;14047;50.936;4.654;2023-02-28T07:58:24;1.00;99.90
26336;DHT22;14047;50.936;4.654;2023-02-28T08:00:51;1.10;99.90
26336;DHT22;14047;50.936;4.654;2023-02-28T08:03:19;1.10;99.90
26336;DHT22;14047;50.936;4.654;2023-02-28T08:05:46;1.10;99.90
26336;DHT22;14047;50.936;4.654;2023-02-28T08:08:12;1.20;99.90
26336;DHT22;14047;50.936;4.654;2023-02-28T08:10:38;1.30;99.90
26336;DHT22;14047;50.936;4.654;2023-02-28T08:13:04;1.50;99.90
26336;DHT22;14047;50.936;4.654;2023-02-28T08:15:30;1.50;99.90
26336;DHT22;14047;50.936;4.654;2023-02-28T08:17:56;1.70;99.90
26336;DHT22;14047;50.936;4.654;2023-02-28T08:20:23;1.80;99.90
26336;DHT22;14047;50.936;4.654;2023-02-28T08:22:49;1.80;99.90
26336;DHT22;14047;50.936;4.654;2023-02-28T08:25:15;2.00;99.90
26336;DHT22;14047;50.936;4.654;2023-02-28T08:27:41;2.30;99.90
26336;DHT22;14047;50.936;4.654;2023-02-28T08:30:12;2.50;99.90
26336;DHT22;14047;50.936;4.654;2023-02-28T08:32:39;2.60;99.90
26336;DHT22;14047;50.936;4.654;2023-02-28T08:35:06;2.60;99.90
26336;DHT22;14047;50.936;4.654;2023-02-28T08:37:32;2.40;99.90
26336;DHT22;14047;50.936;4.654;2023-02-28T08:39:58;2.60;99.90
26336;DHT22;14047;50.936;4.654;2023-02-28T08:42:24;2.60;99.90
26336;DHT22;14047;50.936;4.654;2023-02-28T08:44:50;2.20;99.90
26336;DHT22;14047;50.936;4.654;2023-02-28T08:47:16;2.40;99.90
26336;DHT22;14047;50.936;4.654;2023-02-28T08:49:42;2.60;99.90
26336;DHT22;14047;50.936;4.654;2023-02-28T08:52:08;2.60;99.90
26336;DHT22;14047;50.936;4.654;2023-02-28T08:54:35;2.70;99.90
26336;DHT22;14047;50.936;4.654;2023-02-28T08:57:02;2.90;99.90
26336;DHT22;14047;50.936;4.654;2023-02-28T08:59:28;3.10;99.90
26336;DHT22;14047;50.936;4.654;2023-02-28T09:01:54;3.10;99.90
26336;DHT22;14047;50.936;4.654;2023-02-28T09:04:20;3.20;99.90
26336;DHT22;14047;50.936;4.654;2023-02-28T09:06:46;3.50;99.90
26336;DHT22;14047;50.936;4.654;2023-02-28T09:09:14;3.60;99.90
26336;DHT22;14047;50.936;4.654;2023-02-28T09:11:40;3.60;99.90
26336;DHT22;14047;50.936;4.654;2023-02-28T09:14:07;3.60;99.90
26336;DHT22;14047;50.936;4.654;2023-02-28T09:16:33;3.00;99.90
26336;DHT22;14047;50.936;4.654;2023-02-28T09:19:00;3.00;99.90
26336;DHT22;14047;50.936;4.654;2023-02-28T09:21:26;3.00;99.90
26336;DHT22;14047;50.936;4.654;2023-02-28T09:23:52;3.30;99.90
26336;DHT22;14047;50.936;4.654;2023-02-28T09:26:24;3.60;99.90
26336;DHT22;14047;50.936;4.654;2023-02-28T09:28:52;3.80;99.90
26336;DHT22;14047;50.936;4.654;2023-02-28T09:31:24;3.90;99.90
26336;DHT22;14047;50.936;4.654;2023-02-28T09:33:51;4.00;99.90
26336;DHT22;14047;50.936;4.654;2023-02-28T09:36:19;3.60;99.90
26336;DHT22;14047;50.936;4.654;2023-02-28T09:38:46;3.20;99.90
26336;DHT22;14047;50.936;4.654;2023-02-28T09:41:22;3.30;99.90
26336;DHT22;14047;50.936;4.654;2023-02-28T09:44:07;3.60;99.90
26336;DHT22;14047;50.936;4.654;2023-02-28T09:46:47;3.80;99.90
26336;DHT22;14047;50.936;4.654;2023-02-28T09:49:22;3.70;99.90
26336;DHT22;14047;50.936;4.654;2023-02-28T09:54:58;3.70;99.90
26336;DHT22;14047;50.936;4.654;2023-02-28T09:57:36;4.00;99.90
26336;DHT22;14047;50.936;4.654;2023-02-28T10:00:24;4.00;99.90
26336;DHT22;14047;50.936;4.654;2023-02-28T10:05:50;3.80;99.90
26336;DHT22;14047;50.936;4.654;2023-02-28T10:08:32;4.10;99.90
26336;DHT22;14047;50.936;4.654;2023-02-28T10:11:06;4.20;99.90
26336;DHT22;14047;50.936;4.654;2023-02-28T10:13:36;4.30;99.90
26336;DHT22;14047;50.936;4.654;2023-02-28T10:16:24;4.40;99.90
26336;DHT22;14047;50.936;4.654;2023-02-28T10:18:56;4.50;99.90
26336;DHT22;14047;50.936;4.654;2023-02-28T10:21:31;4.50;99.90
26336;DHT22;14047;50.936;4.654;2023-02-28T10:24:04;4.40;99.90
26336;DHT22;14047;50.936;4.654;2023-02-28T10:26:32;4.50;99.90
26336;DHT22;14047;50.936;4.654;2023-02-28T10:28:58;4.30;99.90
26336;DHT22;14047;50.936;4.654;2023-02-28T10:31:24;4.30;99.90
26336;DHT22;14047;50.936;4.654;2023-02-28T10:33:50;4.50;99.90
26336;DHT22;14047;50.936;4.654;2023-02-28T10:36:18;4.50;99.90
26336;DHT22;14047;50.936;4.654;2023-02-28T10:38:46;4.50;99.90
26336;DHT22;14047;50.936;4.654;2023-02-28T10:41:16;4.20;99.90
26336;DHT22;14047;50.936;4.654;2023-02-28T10:43:43;4.30;99.90
26336;DHT22;14047;50.936;4.654;2023-02-28T10:51:38;4.90;99.90
26336;DHT22;14047;50.936;4.654;2023-02-28T10:54:04;4.90;99.90
26336;DHT22;14047;50.936;4.654;2023-02-28T10:56:32;4.70;99.90
26336;DHT22;14047;50.936;4.654;2023-02-28T11:01:41;4.90;99.90
26336;DHT22;14047;50.936;4.654;2023-02-28T11:04:31;5.20;99.90
26336;DHT22;14047;50.936;4.654;2023-02-28T11:07:21;5.30;99.90
26336;DHT22;14047;50.936;4.654;2023-02-28T11:09:52;5.30;99.90
26336;DHT22;14047;50.936;4.654;2023-02-28T11:12:20;5.30;99.90
26336;DHT22;14047;50.936;4.654;2023-02-28T11:14:49;5.30;99.90
26336;DHT22;14047;50.936;4.654;2023-02-28T11:17:22;5.20;99.90
26336;DHT22;14047;50.936;4.654;2023-02-28T11:20:01;5.40;99.90
26336;DHT22;14047;50.936;4.654;2023-02-28T11:22:32;5.30;99.90
26336;DHT22;14047;50.936;4.654;2023-02-28T11:25:07;5.40;99.90
26336;DHT22;14047;50.936;4.654;2023-02-28T11:32:59;5.80;99.90
26336;DHT22;14047;50.936;4.654;2023-02-28T11:35:38;5.80;99.90
26336;DHT22;14047;50.936;4.654;2023-02-28T11:38:09;5.70;99.90
26336;DHT22;14047;50.936;4.654;2023-02-28T11:43:21;4.90;99.90
26336;DHT22;14047;50.936;4.654;2023-02-28T11:48:27;5.10;99.90
26336;DHT22;14047;50.936;4.654;2023-02-28T11:51:15;5.40;99.90
26336;DHT22;14047;50.936;4.654;2023-02-28T11:54:12;5.20;99.90
26336;DHT22;14047;50.936;4.654;2023-02-28T11:56:48;5.40;99.90
26336;DHT22;14047;50.936;4.654;2023-02-28T12:02:36;5.50;99.90
26336;DHT22;14047;50.936;4.654;2023-02-28T12:05:36;5.60;99.90
26336;DHT22;14047;50.936;4.654;2023-02-28T12:10:48;5.60;99.90
26336;DHT22;14047;50.936;4.654;2023-02-28T12:13:24;5.80;99.90
26336;DHT22;14047;50.936;4.654;2023-02-28T12:16:25;6.10;99.90
26336;DHT22;14047;50.936;4.654;2023-02-28T12:21:37;6.00;99.90
26336;DHT22;14047;50.936;4.654;2023-02-28T12:24:26;5.70;99.90
26336;DHT22;14047;50.936;4.654;2023-02-28T12:26:55;5.30;99.90
26336;DHT22;14047;50.936;4.654;2023-02-28T12:29:28;5.00;99.90
26336;DHT22;14047;50.936;4.654;2023-02-28T12:37:49;5.60;99.90
26336;DHT22;14047;50.936;4.654;2023-02-28T12:40:22;5.90;99.90
26336;DHT22;14047;50.936;4.654;2023-02-28T12:42:52;6.00;99.90
26336;DHT22;14047;50.936;4.654;2023-02-28T12:45:23;5.80;99.90
26336;DHT22;14047;50.936;4.654;2023-02-28T12:47:59;6.00;99.90
26336;DHT22;14047;50.936;4.654;2023-02-28T12:50:27;6.00;99.90
26336;DHT22;14047;50.936;4.654;2023-02-28T12:53:26;6.00;99.90
26336;DHT22;14047;50.936;4.654;2023-02-28T12:59:03;6.30;99.90
26336;DHT22;14047;50.936;4.654;2023-02-28T13:02:01;6.30;99.90
26336;DHT22;14047;50.936;4.654;2023-02-28T13:07:45;6.40;99.90
26336;DHT22;14047;50.936;4.654;2023-02-28T13:10:15;6.50;99.90
26336;DHT22;14047;50.936;4.654;2023-02-28T13:12:50;5.80;99.90
26336;DHT22;14047;50.936;4.654;2023-02-28T13:15:25;5.70;99.90
26336;DHT22;14047;50.936;4.654;2023-02-28T13:17:56;5.90;99.90
26336;DHT22;14047;50.936;4.654;2023-02-28T13:20:29;6.30;99.90
26336;DHT22;14047;50.936;4.654;2023-02-28T13:22:55;6.50;99.90
26336;DHT22;14047;50.936;4.654;2023-02-28T13:27:53;6.60;99.90
26336;DHT22;14047;50.936;4.654;2023-02-28T13:38:56;5.50;99.90
26336;DHT22;14047;50.936;4.654;2023-02-28T13:47:22;5.50;99.90
26336;DHT22;14047;50.936;4.654;2023-02-28T13:51:53;5.80;99.90
26336;DHT22;14047;50.936;4.654;2023-02-28T14:09:23;7.10;99.90
26336;DHT22;14047;50.936;4.654;2023-02-28T14:11:50;7.20;99.90
26336;DHT22;14047;50.936;4.654;2023-02-28T14:17:05;7.10;99.90
26336;DHT22;14047;50.936;4.654;2023-02-28T14:19:34;6.90;99.90
26336;DHT22;14047;50.936;4.654;2023-02-28T14:27:28;7.00;99.90
26336;DHT22;14047;50.936;4.654;2023-02-28T14:38:07;7.40;99.90
26336;DHT22;14047;50.936;4.654;2023-02-28T14:40:39;6.70;99.90
26336;DHT22;14047;50.936;4.654;2023-02-28T14:43:16;6.30;99.90
26336;DHT22;14047;50.936;4.654;2023-02-28T14:45:52;6.60;99.90
26336;DHT22;14047;50.936;4.654;2023-02-28T14:48:20;6.20;99.90
26336;DHT22;14047;50.936;4.654;2023-02-28T14:50:58;6.50;99.90
26336;DHT22;14047;50.936;4.654;2023-02-28T14:53:28;6.80;99.90
26336;DHT22;14047;50.936;4.654;2023-02-28T14:55:55;6.70;99.90
26336;DHT22;14047;50.936;4.654;2023-02-28T14:58:27;7.00;99.90
26336;DHT22;14047;50.936;4.654;2023-02-28T15:00:57;7.30;99.90
26336;DHT22;14047;50.936;4.654;2023-02-28T15:03:38;7.50;99.90
26336;DHT22;14047;50.936;4.654;2023-02-28T15:06:11;7.60;99.90
26336;DHT22;14047;50.936;4.654;2023-02-28T15:08:38;7.40;99.90
26336;DHT22;14047;50.936;4.654;2023-02-28T15:11:15;7.40;99.90
26336;DHT22;14047;50.936;4.654;2023-02-28T15:13:54;6.70;99.90
26336;DHT22;14047;50.936;4.654;2023-02-28T15:16:29;6.50;99.90
26336;DHT22;14047;50.936;4.654;2023-02-28T15:21:49;6.10;99.90
26336;DHT22;14047;50.936;4.654;2023-02-28T15:24:21;6.20;99.90
26336;DHT22;14047;50.936;4.654;2023-02-28T15:26:59;6.20;99.90
26336;DHT22;14047;50.936;4.654;2023-02-28T15:29:27;6.20;99.90
26336;DHT22;14047;50.936;4.654;2023-02-28T15:32:03;6.40;99.90
26336;DHT22;14047;50.936;4.654;2023-02-28T15:34:41;6.60;99.90
26336;DHT22;14047;50.936;4.654;2023-02-28T15:39:53;6.40;99.90
26336;DHT22;14047;50.936;4.654;2023-02-28T15:42:21;6.10;99.90
26336;DHT22;14047;50.936;4.654;2023-02-28T15:44:48;5.80;99.90
26336;DHT22;14047;50.936;4.654;2023-02-28T15:47:23;5.90;99.90
26336;DHT22;14047;50.936;4.654;2023-02-28T15:49:50;5.90;99.90
26336;DHT22;14047;50.936;4.654;2023-02-28T15:52:19;6.40;99.90
26336;DHT22;14047;50.936;4.654;2023-02-28T15:54:46;7.00;99.90
26336;DHT22;14047;50.936;4.654;2023-02-28T15:57:25;6.90;99.90
26336;DHT22;14047;50.936;4.654;2023-02-28T16:00:03;7.30;99.90
26336;DHT22;14047;50.936;4.654;2023-02-28T16:02:38;7.60;99.90
26336;DHT22;14047;50.936;4.654;2023-02-28T16:07:35;7.70;99.90
26336;DHT22;14047;50.936;4.654;2023-02-28T16:10:01;7.00;99.90
26336;DHT22;14047;50.936;4.654;2023-02-28T16:12:30;7.40;99.90
26336;DHT22;14047;50.936;4.654;2023-02-28T16:15:02;7.80;99.90
26336;DHT22;14047;50.936;4.654;2023-02-28T16:17:31;7.80;99.90
26336;DHT22;14047;50.936;4.654;2023-02-28T16:19:58;8.50;99.90
26336;DHT22;14047;50.936;4.654;2023-02-28T16:22:24;8.60;99.90
26336;DHT22;14047;50.936;4.654;2023-02-28T16:24:50;7.90;99.90
26336;DHT22;14047;50.936;4.654;2023-02-28T16:27:31;7.50;99.90
26336;DHT22;14047;50.936;4.654;2023-02-28T16:29:58;7.50;99.90
26336;DHT22;14047;50.936;4.654;2023-02-28T16:32:24;7.90;99.90
26336;DHT22;14047;50.936;4.654;2023-02-28T16:34:50;7.90;99.90
26336;DHT22;14047;50.936;4.654;2023-02-28T16:37:17;8.10;99.90
26336;DHT22;14047;50.936;4.654;2023-02-28T16:39:45;8.50;99.90
26336;DHT22;14047;50.936;4.654;2023-02-28T16:42:33;7.60;99.90
26336;DHT22;14047;50.936;4.654;2023-02-28T16:44:59;7.30;99.90
26336;DHT22;14047;50.936;4.654;2023-02-28T16:47:24;7.60;99.90
26336;DHT22;14047;50.936;4.654;2023-02-28T16:49:52;8.00;99.90
26336;DHT22;14047;50.936;4.654;2023-02-28T16:52:18;7.90;99.90
26336;DHT22;14047;50.936;4.654;2023-02-28T16:54:44;7.90;99.90
26336;DHT22;14047;50.936;4.654;2023-02-28T16:57:18;7.00;99.90
26336;DHT22;14047;50.936;4.654;2023-02-28T16:59:45;6.70;99.90
26336;DHT22;14047;50.936;4.654;2023-02-28T17:02:14;6.50;99.90
26336;DHT22;14047;50.936;4.654;2023-02-28T17:04:40;6.50;99.90
26336;DHT22;14047;50.936;4.654;2023-02-28T17:07:11;6.50;99.90
26336;DHT22;14047;50.936;4.654;2023-02-28T17:09:38;6.10;99.90
26336;DHT22;14047;50.936;4.654;2023-02-28T17:12:04;6.20;99.90
26336;DHT22;14047;50.936;4.654;2023-02-28T17:14:31;6.20;99.90
26336;DHT22;14047;50.936;4.654;2023-02-28T17:16:56;6.20;99.90
26336;DHT22;14047;50.936;4.654;2023-02-28T17:19:22;6.00;99.90
26336;DHT22;14047;50.936;4.654;2023-02-28T17:21:48;5.90;99.90
26336;DHT22;14047;50.936;4.654;2023-02-28T17:24:14;5.40;99.90
26336;DHT22;14047;50.936;4.654;2023-02-28T17:26:41;5.40;99.90
26336;DHT22;14047;50.936;4.654;2023-02-28T17:29:21;5.30;99.90
26336;DHT22;14047;50.936;4.654;2023-02-28T17:31:47;5.30;99.90
26336;DHT22;14047;50.936;4.654;2023-02-28T17:34:13;5.20;99.90
26336;DHT22;14047;50.936;4.654;2023-02-28T17:36:45;5.10;99.90
26336;DHT22;14047;50.936;4.654;2023-02-28T17:39:13;5.20;99.90
26336;DHT22;14047;50.936;4.654;2023-02-28T17:41:41;5.00;99.90
26336;DHT22;14047;50.936;4.654;2023-02-28T17:44:08;5.00;99.90
26336;DHT22;14047;50.936;4.654;2023-02-28T17:46:34;4.90;99.90
26336;DHT22;14047;50.936;4.654;2023-02-28T17:49:00;4.80;99.90
26336;DHT22;14047;50.936;4.654;2023-02-28T17:51:26;4.60;99.90
26336;DHT22;14047;50.936;4.654;2023-02-28T17:53:52;4.30;99.90
26336;DHT22;14047;50.936;4.654;2023-02-28T17:56:23;4.10;99.90
26336;DHT22;14047;50.936;4.654;2023-02-28T17:58:51;4.00;99.90
26336;DHT22;14047;50.936;4.654;2023-02-28T18:01:18;3.90;99.90
26336;DHT22;14047;50.936;4.654;2023-02-28T18:03:46;3.80;99.90
26336;DHT22;14047;50.936;4.654;2023-02-28T18:06:40;3.60;99.90
26336;DHT22;14047;50.936;4.654;2023-02-28T18:09:14;3.60;99.90
26336;DHT22;14047;50.936;4.654;2023-02-28T18:11:40;3.60;99.90
26336;DHT22;14047;50.936;4.654;2023-02-28T18:14:15;3.60;99.90
26336;DHT22;14047;50.936;4.654;2023-02-28T18:16:42;3.60;99.90
26336;DHT22;14047;50.936;4.654;2023-02-28T18:19:08;3.70;99.90
26336;DHT22;14047;50.936;4.654;2023-02-28T18:21:44;3.50;99.90
26336;DHT22;14047;50.936;4.654;2023-02-28T18:24:10;3.40;99.90
26336;DHT22;14047;50.936;4.654;2023-02-28T18:26:38;3.30;99.90
26336;DHT22;14047;50.936;4.654;2023-02-28T18:29:05;3.30;99.90
26336;DHT22;14047;50.936;4.654;2023-02-28T18:31:31;3.30;99.90
26336;DHT22;14047;50.936;4.654;2023-02-28T18:33:58;3.30;99.90
26336;DHT22;14047;50.936;4.654;2023-02-28T18:36:26;3.40;99.90